Latest Coastal Weather Observations for Roebourne Airport

IDW60701

Issued at 4:42 am WST Wednesday 1 April 2015 (issued every 10 minutes, with the page automatically refreshed every 10 minutes)

About coastal observations | Map of coastal stations | Coastal observations for WA | Marine services | Other Formats
Station Details ID: 004090 Name: ROEBOURNE AERO Lat: -20.76 Lon: 117.16 Height: 10.7 m
Data from the previous 72 hours. | See also: Recent months at Roebourne Airport
Date/Time
WST
Temp

°C
Wind Pressure Rain
since 9am
mm
Weather Cloud Vis
km
Sea
Height
m
Swell
Dir
 
Speed
knots
Gust
knots
hPa Trend Height
m
Period
s
Dir
01/04:30am 26.0 WSW 3 4 1013.4 - 0.2 - - - - - - -
01/04:00am 25.9 SW 4 5 1013.4 - 0.2 - - - - - - -
01/03:30am 26.0 SW 5 5 1013.4 - 0.2 - - - - - - -
01/03:00am 26.1 CALM 0 0 1013.2 - 0.2 - - - - - - -
01/02:30am 26.4 WSW 4 4 1013.2 - 0.2 - - - - - - -
01/02:00am 26.4 SW 1 3 1013.1 - 0.2 - - - - - - -
01/01:30am 26.4 SSW 4 5 1013.3 - 0.2 - - - - - - -
01/01:00am 26.9 WSW 5 6 1013.5 - 0.2 - - - - - - -
01/12:30am 26.8 WSW 4 5 1013.7 - 0.2 - - - - - - -
01/12:00am 26.9 WSW 3 4 1013.9 - 0.2 - - - - - - -
 
Date/Time
WST
Temp

°C
Wind Pressure Rain
since 9am
mm
Weather Cloud Vis
km
Sea
Height
m
Swell
Dir
 
Speed
knots
Gust
knots
hPa Trend Height
m
Period
s
Dir
31/11:30pm 26.9 WSW 3 4 1014.0 - 0.2 - - - - - - -
31/11:00pm 27.5 W 3 4 1014.0 - 0.2 - - - - - - -
31/10:30pm 27.6 W 3 4 1014.1 - 0.2 - - - - - - -
31/10:00pm 28.0 W 5 6 1014.2 - 0.2 - - - - - - -
31/09:30pm 28.2 W 5 6 1014.4 - 0.2 - - - - - - -
31/09:00pm 28.4 W 5 6 1014.3 - 0.2 - - - - - - -
31/08:30pm 28.7 W 5 7 1014.2 - 0.2 - - - - - - -
31/08:00pm 28.8 NW 5 6 1014.0 - 0.2 - - - - - - -
31/07:30pm 29.2 WNW 5 7 1013.7 - 0.2 - - - - - - -
31/07:00pm 29.5 WNW 6 8 1013.2 - 0.2 - - - - - - -
31/06:30pm 29.9 NW 7 9 1012.7 - 0.2 - - - - - - -
31/06:00pm 30.5 NW 8 11 1012.4 - 0.2 - - - - - - -
31/05:30pm 31.5 NW 9 13 1012.3 - 0.2 - - - - - - -
31/05:00pm 32.4 WNW 9 13 1012.1 - 0.2 - - - - - - -
31/04:30pm 32.8 WNW 10 13 1012.1 - 0.2 - - - - - - -
31/04:00pm 33.2 NW 11 14 1011.9 - 0.2 - - - - - - -
31/03:30pm 33.8 NW 10 15 1011.7 - 0.2 - - - - - - -
31/03:00pm 34.0 NW 11 16 1011.5 - 0.2 - - - - - - -
31/02:30pm 33.9 WNW 10 14 1011.8 - 0.2 - - - - - - -
31/02:00pm 33.8 NNW 8 12 1012.0 - 0.2 - - - - - - -
31/01:30pm 33.9 NNW 9 13 1012.5 - 0.2 - - - - - - -
31/01:00pm 32.5 NNE 9 11 1012.7 - 0.2 - - - - - - -
31/12:30pm 33.2 N 8 13 1013.1 - 0.2 - - - - - - -
31/12:00pm 33.1 NE 4 10 1013.4 - 0.2 - - - - - - -
31/11:30am 31.9 N 5 7 1013.9 - 0.2 - - - - - - -
31/11:00am 31.0 N 7 9 1014.4 - 0.2 - - - - - - -
31/10:30am 30.7 NE 5 8 1014.7 - 0.2 - - - - - - -
31/10:00am 29.5 E 7 9 1015.1 - 0.0 - - - - - - -
31/09:30am 28.0 ESE 8 10 1015.6 - 0.0 - - - - - - -
31/09:00am 27.4 SE 5 6 1015.6 - 22.6 - - - - - - -
31/08:30am 26.1 CALM 0 3 1014.9 - 22.6 - - - - - - -
31/08:00am 25.0 WNW 1 5 1014.7 - 22.6 - - - - - - -
31/07:30am 24.3 NNW 5 13 1014.8 - 22.6 - - - - - - -
31/07:15am 24.8 WSW 11 23 1015.1 - 8.0 - - - - - - -
31/07:00am 26.1 WSW 6 11 1014.0 - 2.8 - - - - - - -
31/06:30am 26.4 SSW 6 7 1014.2 - 2.6 - - - - - - -
31/06:00am 26.5 ENE 2 4 1013.6 - 2.2 Rain - - - - - -
31/05:30am 26.5 ENE 6 8 1013.0 - 1.6 - - - - - - -
31/05:00am 26.6 ENE 5 6 1013.3 - 1.6 - - - - - - -
31/04:30am 26.6 SSE 2 3 1013.5 - 1.6 - - - - - - -
31/04:00am 26.8 S 3 5 1013.2 - 1.2 - - - - - - -
31/03:30am 26.8 WSW 4 5 1013.4 - 1.2 - - - - - - -
31/03:00am 27.1 CALM 0 1 1013.2 - 1.0 Recent precip. - - - - - -
31/02:30am 27.1 NW 4 4 1013.0 - 1.0 - - - - - - -
31/02:00am 27.3 NW 4 5 1013.4 - 0.8 - - - - - - -
31/01:30am 27.7 N 5 6 1013.5 - 0.4 - - - - - - -
31/01:00am 28.0 NW 3 4 1013.6 - 0.4 - - - - - - -
31/12:30am 28.1 N 4 5 1013.7 - 0.4 - - - - - - -
31/12:00am 28.0 NNW 3 4 1014.0 - 0.4 - - - - - - -
 
Date/Time
WST
Temp

°C
Wind Pressure Rain
since 9am
mm
Weather Cloud Vis
km
Sea
Height
m
Swell
Dir
 
Speed
knots
Gust
knots
hPa Trend Height
m
Period
s
Dir
30/11:30pm 28.0 N 3 5 1013.9 - 0.4 - - - - - - -
30/11:00pm 28.0 N 5 6 1013.6 - 0.4 - - - - - - -
30/10:30pm 28.0 N 5 6 1013.8 - 0.4 - - - - - - -
30/10:00pm 28.1 N 5 6 1014.0 - 0.4 - - - - - - -
30/09:30pm 28.3 N 6 7 1014.0 - 0.4 - - - - - - -
30/09:00pm 28.4 N 7 9 1014.1 - 0.4 - - - - - - -
30/08:30pm 28.4 NNE 7 9 1014.1 - 0.4 - - - - - - -
30/08:00pm 28.4 NNE 8 9 1013.8 - 0.4 - - - - - - -
30/07:30pm 28.3 NNE 7 9 1013.4 - 0.4 - - - - - - -
30/07:00pm 28.2 NNE 8 10 1013.0 - 0.4 - - - - - - -
30/06:30pm 28.6 NNE 10 13 1012.7 - 0.2 - - - - - - -
30/06:00pm 28.8 NNE 9 11 1012.6 - 0.2 - - - - - - -
30/05:30pm 29.0 NNE 9 12 1012.3 - 0.2 - - - - - - -
30/05:00pm 29.3 NNE 12 15 1012.1 - 0.2 - - - - - - -
30/04:30pm 29.5 NNE 10 14 1012.1 - 0.2 - - - - - - -
30/04:00pm 29.6 NNE 10 13 1011.9 - 0.2 - - - - - - -
30/03:30pm 29.9 NNE 11 14 1011.9 - 0.2 - - - - - - -
30/03:00pm 30.0 NNE 11 14 1011.8 - 0.2 - - - - - - -
30/02:30pm 30.0 NNE 12 16 1012.0 - 0.2 - - - - - - -
30/02:00pm 30.4 NNE 12 16 1012.2 - 0.2 - - - - - - -
30/01:30pm 31.1 NE 13 16 1011.9 - 0.2 - - - - - - -
30/01:00pm 31.4 NE 14 19 1012.0 - 0.2 - - - - - - -
30/12:30pm 33.0 NE 12 17 1012.5 - 0.2 - - - - - - -
30/12:00pm 31.2 NE 14 18 1013.0 - 0.2 - - - - - - -
30/11:30am 31.0 NE 12 15 1013.5 - 0.2 - - - - - - -
30/11:00am 31.5 NE 15 19 1013.6 - 0.2 - - - - - - -
30/10:30am 30.6 ENE 12 15 1013.6 - 0.0 - - - - - - -
30/10:00am 28.6 E 6 9 1014.1 - 0.0 - - - - - - -
30/09:30am 27.4 ESE 8 11 1014.3 - 0.0 - - - - - - -
30/09:00am 26.3 SE 3 4 1014.3 - 10.2 - - - - - - -
30/08:30am 25.4 SSE 6 7 1014.1 - 10.2 - - - - - - -
30/08:00am 25.3 SW 3 6 1014.3 - 10.2 - - - - - - -
30/07:30am 24.9 N 5 8 1013.8 - 10.2 - - - - - - -
30/07:00am 23.8 NNE 19 32 1013.3 - 10.2 - - - - - - -
30/06:59am 23.8 NNE 20 32 1013.3 - 10.0 - - - - - - -
30/06:52am 24.6 NE 14 32 1013.3 - 5.8 - - - - - - -
30/06:50am 25.0 NE 11 29 1013.2 - 5.0 - - - - - - -
30/06:30am 26.5 NE 7 9 1012.9 - 2.8 - - - - - - -
30/06:00am 25.5 NE 9 13 1012.7 - 2.8 Recent precip. - - - - - -
30/05:30am 25.8 NNE 14 20 1012.2 - 1.6 - - - - - - -
30/05:00am 25.8 NE 13 16 1011.5 - 1.6 - - - - - - -
30/04:30am 26.0 NE 12 18 1011.8 - 1.6 - - - - - - -
30/04:00am 25.6 NNE 9 15 1011.8 - 1.6 - - - - - - -
30/03:38am 27.1 E 10 27 1011.4 - 0.0 - - - - - - -
30/03:30am 27.5 ESE 10 12 1011.1 - 0.0 - - - - - - -
30/03:00am 27.3 ESE 10 13 1010.9 - 0.0 - - - - - - -
30/02:30am 27.9 E 10 13 1011.5 - 0.0 - - - - - - -
30/02:00am 28.1 E 9 12 1011.8 - 0.0 - - - - - - -
30/01:30am 27.9 ESE 9 11 1012.1 - 0.0 - - - - - - -
30/01:00am 28.0 ESE 8 10 1012.6 - 0.0 - - - - - - -
30/12:30am 28.4 E 9 13 1012.8 - 0.0 - - - - - - -
30/12:00am 28.7 E 9 12 1013.2 - 0.0 - - - - - - -
 
Date/Time
WST
Temp

°C
Wind Pressure Rain
since 9am
mm
Weather Cloud Vis
km
Sea
Height
m
Swell
Dir
 
Speed
knots
Gust
knots
hPa Trend Height
m
Period
s
Dir
29/11:30pm 28.6 ESE 9 12 1013.4 - 0.0 - - - - - - -
29/11:00pm 28.9 ESE 10 12 1013.7 - 0.0 - - - - - - -
29/10:30pm 29.0 ESE 9 12 1013.9 - 0.0 - - - - - - -
29/10:00pm 29.3 ESE 9 12 1014.0 - 0.0 - - - - - - -
29/09:30pm 29.4 ENE 11 14 1013.9 - 0.0 - - - - - - -
29/09:00pm 29.4 E 12 15 1013.8 - 0.0 - - - - - - -
29/08:30pm 29.2 ENE 12 16 1013.7 - 0.0 - - - - - - -
29/08:00pm 29.5 ENE 13 18 1013.3 - 0.0 - - - - - - -
29/07:30pm 29.8 ENE 15 19 1013.3 - 0.0 - - - - - - -
29/07:00pm 30.2 ENE 14 19 1012.8 - 0.0 - - - - - - -
29/06:30pm 30.2 NE 16 22 1012.4 - 0.0 - - - - - - -
29/06:00pm 30.5 NE 17 22 1011.7 - 0.0 - - - - - - -
29/05:30pm 31.0 NE 19 24 1011.3 - 0.0 - - - - - - -
29/05:00pm 32.3 NE 19 27 1010.9 - 0.0 - - - - - - -
29/04:30pm 33.0 NE 20 26 1010.8 - 0.0 - - - - - - -
29/04:00pm 33.7 NE 18 24 1010.6 - 0.0 - - - - - - -
29/03:30pm 34.1 NNE 18 24 1010.4 - 0.0 - - - - - - -
29/03:00pm 34.5 NNE 17 22 1010.2 - 0.0 - - - - - - -
29/02:30pm 35.5 NNE 16 21 1010.6 - 0.0 - - - - - - -
29/02:00pm 35.1 NNE 16 20 1010.6 - 0.0 - - - - - - -
29/01:30pm 34.9 NNE 15 20 1010.8 - 0.0 - - - - - - -
29/01:00pm 36.2 NE 15 22 1011.0 - 0.0 - - - - - - -
29/12:30pm 36.2 NE 15 23 1011.6 - 0.0 - - - - - - -
29/12:00pm 35.6 NE 15 21 1012.3 - 0.0 - - - - - - -
29/11:30am 35.4 ENE 12 18 1012.6 - 0.0 - - - - - - -
29/11:00am 34.5 ENE 13 18 1013.4 - 0.0 - - - - - - -
29/10:30am 34.6 ENE 14 19 1013.8 - 0.0 - - - - - - -
29/10:00am 34.3 ENE 12 16 1013.8 - 0.0 - - - - - - -
29/09:30am 34.0 E 9 12 1013.7 - 0.0 - - - - - - -
29/09:00am 33.0 E 9 11 1013.4 - 0.0 - - - - - - -
29/08:30am 31.8 ENE 9 11 1013.4 - 0.0 - - - - - - -
29/08:00am 30.7 ENE 10 13 1013.1 - 0.0 - - - - - - -
29/07:30am 30.0 E 9 11 1013.1 - 0.0 - - - - - - -
29/07:00am 27.8 E 6 8 1012.9 - 0.0 - - - - - - -
29/06:30am 25.3 ESE 6 6 1012.4 - 0.0 - - - - - - -
29/06:00am 25.2 ESE 6 7 1012.1 - 0.0 - - - - - - -
29/05:30am 25.2 ESE 5 6 1011.8 - 0.0 - - - - - - -
29/05:00am 25.2 E 7 8 1011.8 - 0.0 - - - - - - -

Other Formats:

Comma delimited format used in spreadsheet applications
http://www.bom.gov.au/fwo/IDW60701/IDW60701.94308.axf

JavaScript Object Notation format (JSON) in row-major order
http://www.bom.gov.au/fwo/IDW60701/IDW60701.94308.json